»·PEaware :: SWA1888 KBUR-KPDX

SWA1888 :: KBUR-KPDX

FLIGHT INFORMATION

Flight Status: Arrived
Operator:
Southwest Airlines
More flights by this operator :: More flights under this callsign
Pilot: Robert H. (15071)
Aircraft: BOEING 737-300
(B733)
More flights by this aircraft type
Origin: KBUR Bob Hope-Burbank
United States
Destination: KPDX Portland Intl
United States
More flights between these airports :: More routes between these airports
Route: +OROSZ1 CSTRO DUCKE LMT MOXEE TMBRS2
File this flight plan on PilotEdge
Remarks: PBN / A1B3B4B5D3D4 DOF / 170421 REG / N654SW EET / KZOA0022 KZSE0106 OPR / SWA RMK / TCAS SIMBRIEF
Altitude:
(Current/Filed)
34,000ft
Speed:
(Current/Filed)
439kts
Departed: 21-Apr-17 09:28 AM
Arrived: 21-Apr-17 11:38 AM
Distance/Time
Traveled:
710nm/2:10
Distance/Time
To Go:
Arrived

Flight Plot

Page will automatically refresh every two minutes.

Flight plan parsing failed; only flown route is shown


Map Options




Map Legend


Flown Route
Filed Route
Departure Airport
Arrival Airport
Navaid (VOR, NDB)
Fix

Horizontal Profiles

Position Reports

Time Latitude Longitude Heading Altitude Ground
Speed
21-Apr-17 08:33 34.196796 -118.352828 178 784ft 0kts
21-Apr-17 08:34 34.196796 -118.352828 178 784ft 0kts
21-Apr-17 08:35 34.196796 -118.352828 178 784ft 0kts
21-Apr-17 08:36 34.196796 -118.352828 178 784ft 0kts
21-Apr-17 08:37 34.196796 -118.352828 178 784ft 0kts
21-Apr-17 08:38 34.196796 -118.352828 178 784ft 0kts
21-Apr-17 08:39 34.196796 -118.352828 178 784ft 0kts
21-Apr-17 08:40 34.196796 -118.352828 178 784ft 0kts
21-Apr-17 08:41 34.196796 -118.352828 178 784ft 0kts
21-Apr-17 08:42 34.196796 -118.352828 178 784ft 0kts
21-Apr-17 08:43 34.196796 -118.352828 178 784ft 0kts
21-Apr-17 08:44 34.196796 -118.352828 178 784ft 0kts
21-Apr-17 08:45 34.196796 -118.352828 178 784ft 0kts
21-Apr-17 08:46 34.196796 -118.352828 178 784ft 0kts
21-Apr-17 08:47 34.196796 -118.352828 178 784ft 0kts
21-Apr-17 08:48 34.196796 -118.352828 178 784ft 0kts
21-Apr-17 08:49 34.196796 -118.352828 178 784ft 0kts
21-Apr-17 08:50 34.196796 -118.352828 178 784ft 0kts
21-Apr-17 08:51 34.196796 -118.352828 178 784ft 0kts
21-Apr-17 08:52 34.196796 -118.352828 178 784ft 0kts
21-Apr-17 08:54 34.196796 -118.352828 178 784ft 0kts
21-Apr-17 08:55 34.196796 -118.352828 178 784ft 0kts
21-Apr-17 08:56 34.196796 -118.352828 178 784ft 0kts
21-Apr-17 08:57 34.196796 -118.352828 178 784ft 0kts
21-Apr-17 08:58 34.196796 -118.352828 178 784ft 0kts
21-Apr-17 08:59 34.196796 -118.352828 178 784ft 0kts
21-Apr-17 09:00 34.196796 -118.352828 178 784ft 0kts
21-Apr-17 09:01 34.196796 -118.352828 178 784ft 0kts
21-Apr-17 09:02 34.196796 -118.352828 178 784ft 0kts
21-Apr-17 09:03 34.196796 -118.352828 178 784ft 0kts
21-Apr-17 09:04 34.196796 -118.352828 178 784ft 0kts
21-Apr-17 09:05 34.196796 -118.352828 178 784ft 0kts
21-Apr-17 09:06 34.196796 -118.352828 178 784ft 0kts
21-Apr-17 09:07 34.196796 -118.352828 178 784ft 0kts
21-Apr-17 09:08 34.196796 -118.352828 178 784ft 0kts
21-Apr-17 09:09 34.196796 -118.352828 178 784ft 0kts
21-Apr-17 09:10 34.196796 -118.352828 178 784ft 0kts
21-Apr-17 09:11 34.196796 -118.352828 178 784ft 0kts
21-Apr-17 09:12 34.196796 -118.352828 178 784ft 0kts
21-Apr-17 09:13 34.196796 -118.352828 178 784ft 0kts
21-Apr-17 09:14 34.196796 -118.352828 178 784ft 0kts
21-Apr-17 09:15 34.196796 -118.352828 178 784ft 0kts
21-Apr-17 09:16 34.196796 -118.352828 178 784ft 0kts
21-Apr-17 09:17 34.196796 -118.352828 178 784ft 0kts
21-Apr-17 09:18 34.196796 -118.352828 178 784ft 0kts
21-Apr-17 09:19 34.196900 -118.352832 178 784ft 0kts
21-Apr-17 09:20 34.197154 -118.352837 186 784ft 0kts
21-Apr-17 09:21 34.197154 -118.352837 186 784ft 0kts
21-Apr-17 09:22 34.197154 -118.352837 186 784ft 0kts
21-Apr-17 09:23 34.197154 -118.352837 186 784ft 0kts
21-Apr-17 09:24 34.197071 -118.352923 247 784ft 3kts
21-Apr-17 09:25 34.199265 -118.355520 348 784ft 16kts
21-Apr-17 09:26 34.205960 -118.357413 346 784ft 36kts
21-Apr-17 09:27 34.211654 -118.359064 317 784ft 0kts
21-Apr-17 09:28 34.211660 -118.359070 317 784ft 0kts
21-Apr-17 09:29 34.211865 -118.360324 168 784ft 13kts
21-Apr-17 09:30 34.184035 -118.355331 203 1503ft 158kts
21-Apr-17 09:31 34.143658 -118.397348 222 2942ft 232kts
21-Apr-17 09:32 34.135666 -118.466505 319 5201ft 266kts
21-Apr-17 09:33 34.204904 -118.468081 12 8217ft 275kts
21-Apr-17 09:34 34.269873 -118.489654 310 10275ft 308kts
21-Apr-17 09:35 34.324122 -118.570123 309 12233ft 343kts
21-Apr-17 09:36 34.388545 -118.653015 333 14791ft 353kts
21-Apr-17 09:37 34.479777 -118.685420 349 17035ft 365kts
21-Apr-17 09:38 34.574525 -118.704361 349 19069ft 375kts
21-Apr-17 09:39 34.664919 -118.722078 349 20895ft 382kts
21-Apr-17 09:40 34.760638 -118.759005 330 22665ft 389kts
21-Apr-17 09:41 34.846300 -118.817223 330 24204ft 397kts
21-Apr-17 09:42 34.933013 -118.876844 329 25660ft 404kts
21-Apr-17 09:43 35.024674 -118.940060 329 27114ft 409kts
21-Apr-17 09:44 35.114411 -119.002106 328 28429ft 413kts
21-Apr-17 09:45 35.205467 -119.065221 328 29998ft 407kts
21-Apr-17 09:46 35.298245 -119.129315 328 31337ft 405kts
21-Apr-17 09:47 35.393164 -119.195210 327 32577ft 402kts
21-Apr-17 09:48 35.492800 -119.251272 340 33608ft 406kts
21-Apr-17 09:49 35.591401 -119.284543 340 34216ft 410kts
21-Apr-17 09:50 35.695526 -119.320297 340 34199ft 407kts
21-Apr-17 09:51 35.803769 -119.357699 340 34156ft 421kts
21-Apr-17 09:52 35.915053 -119.396163 340 34162ft 429kts
21-Apr-17 09:53 36.027566 -119.435163 340 34183ft 432kts
21-Apr-17 09:54 36.140511 -119.474433 340 34191ft 434kts
21-Apr-17 09:55 36.248116 -119.511956 340 34193ft 435kts
21-Apr-17 09:56 36.358522 -119.550568 340 34192ft 434kts
21-Apr-17 09:57 36.467789 -119.588896 340 34192ft 434kts
21-Apr-17 09:58 36.571730 -119.625459 340 34190ft 434kts
21-Apr-17 09:59 36.676837 -119.662536 340 34182ft 434kts
21-Apr-17 10:00 36.785929 -119.701132 340 34189ft 434kts
21-Apr-17 10:01 36.886935 -119.736970 340 34192ft 434kts
21-Apr-17 10:02 36.996359 -119.775902 340 34195ft 433kts
21-Apr-17 10:03 37.101549 -119.813434 339 34191ft 428kts
21-Apr-17 10:04 37.203823 -119.850045 338 34189ft 428kts
21-Apr-17 10:05 37.302142 -119.885329 338 34192ft 428kts
21-Apr-17 10:06 37.404220 -119.922063 338 34191ft 428kts
21-Apr-17 10:07 37.513631 -119.961555 338 34187ft 428kts
21-Apr-17 10:08 37.619372 -119.999835 338 34172ft 428kts
21-Apr-17 10:09 37.728776 -120.039561 338 34038ft 428kts
21-Apr-17 10:10 37.839218 -120.079785 338 34040ft 427kts
21-Apr-17 10:11 37.947274 -120.120539 337 34166ft 426kts
21-Apr-17 10:12 38.058719 -120.161592 338 34174ft 428kts
21-Apr-17 10:13 38.171064 -120.202126 338 34183ft 428kts
21-Apr-17 10:14 38.283338 -120.242756 338 34177ft 428kts
21-Apr-17 10:15 38.395917 -120.283628 338 34173ft 428kts
21-Apr-17 10:16 38.508136 -120.324504 338 34222ft 428kts
21-Apr-17 10:17 38.619353 -120.365143 338 34251ft 428kts
21-Apr-17 10:18 38.723802 -120.403429 338 34230ft 428kts
21-Apr-17 10:19 38.836183 -120.444755 338 34212ft 428kts
21-Apr-17 10:20 38.945655 -120.485131 338 34212ft 425kts
21-Apr-17 10:21 39.050724 -120.523940 338 34241ft 418kts
21-Apr-17 10:22 39.153408 -120.562227 337 34246ft 418kts
21-Apr-17 10:23 39.254343 -120.602314 337 34245ft 418kts
21-Apr-17 10:24 39.357499 -120.640881 337 34247ft 418kts
21-Apr-17 10:25 39.464937 -120.681038 337 34246ft 418kts
21-Apr-17 10:26 39.563511 -120.717994 337 34248ft 418kts
21-Apr-17 10:27 39.664926 -120.756129 337 34241ft 418kts
21-Apr-17 10:28 39.774153 -120.797332 337 34257ft 418kts
21-Apr-17 10:29 39.880142 -120.837447 337 34274ft 418kts
21-Apr-17 10:30 39.986191 -120.877711 337 34308ft 418kts
21-Apr-17 10:31 40.087538 -120.916321 337 34298ft 420kts
21-Apr-17 10:32 40.188822 -120.955021 337 34314ft 424kts
21-Apr-17 10:33 40.288870 -120.993362 337 34316ft 426kts
21-Apr-17 10:34 40.382460 -121.029341 337 34316ft 429kts
21-Apr-17 10:35 40.484133 -121.068542 336 34317ft 431kts
21-Apr-17 10:36 40.578532 -121.105002 336 34323ft 434kts
21-Apr-17 10:37 40.683616 -121.145089 336 34320ft 436kts
21-Apr-17 10:38 40.793569 -121.187871 336 34319ft 439kts
21-Apr-17 10:39 40.903141 -121.230663 336 34308ft 440kts
21-Apr-17 10:40 41.017568 -121.275504 336 34291ft 437kts
21-Apr-17 10:41 41.131047 -121.320137 335 34306ft 430kts
21-Apr-17 10:42 41.242693 -121.364233 335 34311ft 431kts
21-Apr-17 10:43 41.355417 -121.408893 335 34311ft 431kts
21-Apr-17 10:44 41.464099 -121.452109 335 34311ft 431kts
21-Apr-17 10:45 41.571234 -121.494857 335 34312ft 431kts
21-Apr-17 10:46 41.674583 -121.536234 335 34311ft 431kts
21-Apr-17 10:47 41.784036 -121.580211 335 34311ft 431kts
21-Apr-17 10:48 41.895946 -121.625334 335 34311ft 431kts
21-Apr-17 10:49 42.006571 -121.670102 335 34309ft 431kts
21-Apr-17 10:50 42.117720 -121.715247 335 34311ft 431kts
21-Apr-17 10:51 42.227506 -121.764063 333 34311ft 428kts
21-Apr-17 10:52 42.335974 -121.817924 332 34310ft 428kts
21-Apr-17 10:53 42.444917 -121.872417 332 34312ft 427kts
21-Apr-17 10:54 42.552779 -121.926572 332 34309ft 427kts
21-Apr-17 10:55 42.660362 -121.980787 332 34311ft 427kts
21-Apr-17 10:56 42.768077 -122.035271 332 34310ft 428kts
21-Apr-17 10:57 42.877106 -122.090624 332 34311ft 427kts
21-Apr-17 10:58 42.985413 -122.145044 332 34302ft 424kts
21-Apr-17 10:59 43.076787 -122.191709 333 34287ft 421kts
21-Apr-17 11:00 43.177365 -122.243318 332 34294ft 422kts
21-Apr-17 11:01 43.280427 -122.296384 333 34291ft 422kts
21-Apr-17 11:02 43.380205 -122.347944 333 34295ft 422kts
21-Apr-17 11:03 43.477855 -122.398571 333 33246ft 422kts
21-Apr-17 11:04 43.569986 -122.446492 333 31972ft 415kts
21-Apr-17 11:05 43.661514 -122.494280 333 30678ft 406kts
21-Apr-17 11:06 43.744698 -122.537842 334 29478ft 399kts
21-Apr-17 11:07 43.819761 -122.577261 334 28376ft 392kts
21-Apr-17 11:08 43.899521 -122.619210 334 27117ft 359kts
21-Apr-17 11:09 43.970147 -122.656497 334 26247ft 329kts
21-Apr-17 11:10 44.036128 -122.691479 334 25501ft 336kts
21-Apr-17 11:11 44.100136 -122.725434 335 24759ft 332kts
21-Apr-17 11:12 44.170424 -122.751444 357 24600ft 341kts
21-Apr-17 11:13 44.250224 -122.743505 358 24561ft 346kts
21-Apr-17 11:14 44.328610 -122.735701 359 23501ft 338kts
21-Apr-17 11:15 44.410113 -122.727649 359 22177ft 331kts
21-Apr-17 11:16 44.490128 -122.719725 359 20857ft 325kts
21-Apr-17 11:16 44.556437 -122.713142 0 19745ft 320kts
21-Apr-17 11:18 44.644548 -122.704356 0 18239ft 314kts
21-Apr-17 11:18 44.705845 -122.698205 1 17173ft 309kts
21-Apr-17 11:20 44.785790 -122.690208 1 15759ft 304kts
21-Apr-17 11:20 44.842747 -122.684419 2 14736ft 300kts
21-Apr-17 11:22 44.916744 -122.676934 2 13389ft 295kts
21-Apr-17 11:22 44.963412 -122.672221 3 12528ft 292kts
21-Apr-17 11:24 45.032748 -122.666307 4 11240ft 283kts
21-Apr-17 11:24 45.078082 -122.661931 5 11021ft 282kts
21-Apr-17 11:25 45.146816 -122.655041 6 10309ft 272kts
21-Apr-17 11:26 45.211068 -122.648499 6 9451ft 268kts
21-Apr-17 11:27 45.272688 -122.656068 341 8600ft 268kts
21-Apr-17 11:28 45.315879 -122.679626 341 7973ft 264kts
21-Apr-17 11:29 45.363376 -122.705635 340 7274ft 260kts
21-Apr-17 11:30 45.412317 -122.732498 340 6544ft 257kts
21-Apr-17 11:31 45.468136 -122.763238 340 5644ft 236kts
21-Apr-17 11:32 45.521364 -122.792571 340 4984ft 214kts
21-Apr-17 11:33 45.573591 -122.804095 12 4549ft 218kts
21-Apr-17 11:34 45.631445 -122.808877 2 3148ft 211kts
21-Apr-17 11:35 45.647995 -122.752562 117 2163ft 175kts
21-Apr-17 11:36 45.627245 -122.703376 120 1344ft 142kts
21-Apr-17 11:37 45.609064 -122.656467 120 588ft 139kts
21-Apr-17 11:38 45.591202 -122.611565 117 31ft 114kts
21-Apr-17 11:39 45.587879 -122.601226 83 31ft 1kts
21-Apr-17 11:40 45.587185 -122.595341 49 31ft 20kts

Navigation Log

Ident Type
Flight plan parsing failed, navigation log unavailable